sensor_id;sensor_type;location;lat;lon;timestamp;P1;durP1;ratioP1;P2;durP2;ratioP2
70667;SDS011;58242;51.250;-1.118;2024-01-30T00:01:06;5.47;;;5.07;;
70667;SDS011;58242;51.250;-1.118;2024-01-30T00:03:32;6.72;;;5.30;;
70667;SDS011;58242;51.250;-1.118;2024-01-30T00:05:57;6.32;;;5.70;;
70667;SDS011;58242;51.250;-1.118;2024-01-30T00:08:22;5.57;;;5.05;;
70667;SDS011;58242;51.250;-1.118;2024-01-30T00:10:48;5.70;;;5.30;;
70667;SDS011;58242;51.250;-1.118;2024-01-30T00:13:13;5.47;;;5.00;;
70667;SDS011;58242;51.250;-1.118;2024-01-30T00:15:41;5.60;;;5.10;;
70667;SDS011;58242;51.250;-1.118;2024-01-30T00:18:07;5.57;;;5.03;;
70667;SDS011;58242;51.250;-1.118;2024-01-30T00:20:33;5.80;;;5.30;;
70667;SDS011;58242;51.250;-1.118;2024-01-30T00:22:58;5.38;;;4.80;;
70667;SDS011;58242;51.250;-1.118;2024-01-30T00:25:23;4.88;;;4.47;;
70667;SDS011;58242;51.250;-1.118;2024-01-30T00:27:49;6.00;;;4.88;;
70667;SDS011;58242;51.250;-1.118;2024-01-30T00:30:14;5.22;;;4.72;;
70667;SDS011;58242;51.250;-1.118;2024-01-30T00:32:40;5.10;;;4.72;;
70667;SDS011;58242;51.250;-1.118;2024-01-30T00:35:05;4.43;;;4.13;;
70667;SDS011;58242;51.250;-1.118;2024-01-30T00:37:31;4.93;;;4.53;;
70667;SDS011;58242;51.250;-1.118;2024-01-30T00:39:56;5.15;;;4.65;;
70667;SDS011;58242;51.250;-1.118;2024-01-30T00:42:22;4.65;;;4.35;;
70667;SDS011;58242;51.250;-1.118;2024-01-30T00:44:48;4.72;;;4.28;;
70667;SDS011;58242;51.250;-1.118;2024-01-30T00:47:15;4.80;;;4.60;;
70667;SDS011;58242;51.250;-1.118;2024-01-30T00:49:40;4.70;;;4.30;;
70667;SDS011;58242;51.250;-1.118;2024-01-30T00:52:06;4.22;;;4.00;;
70667;SDS011;58242;51.250;-1.118;2024-01-30T00:54:31;4.60;;;4.30;;
70667;SDS011;58242;51.250;-1.118;2024-01-30T00:56:56;4.22;;;4.03;;
70667;SDS011;58242;51.250;-1.118;2024-01-30T00:59:22;4.40;;;4.10;;
70667;SDS011;58242;51.250;-1.118;2024-01-30T01:01:47;4.90;;;4.70;;
70667;SDS011;58242;51.250;-1.118;2024-01-30T01:04:12;5.30;;;5.00;;
70667;SDS011;58242;51.250;-1.118;2024-01-30T01:06:38;5.07;;;4.78;;
70667;SDS011;58242;51.250;-1.118;2024-01-30T01:09:03;5.18;;;4.88;;
70667;SDS011;58242;51.250;-1.118;2024-01-30T01:11:29;5.25;;;4.95;;
70667;SDS011;58242;51.250;-1.118;2024-01-30T01:13:54;5.40;;;4.90;;
70667;SDS011;58242;51.250;-1.118;2024-01-30T01:16:19;5.32;;;4.88;;
70667;SDS011;58242;51.250;-1.118;2024-01-30T01:18:45;5.63;;;5.22;;
70667;SDS011;58242;51.250;-1.118;2024-01-30T01:21:10;5.30;;;4.90;;
70667;SDS011;58242;51.250;-1.118;2024-01-30T01:23:36;5.20;;;4.82;;
70667;SDS011;58242;51.250;-1.118;2024-01-30T01:26:01;5.28;;;4.97;;
70667;SDS011;58242;51.250;-1.118;2024-01-30T01:28:26;5.30;;;4.90;;
70667;SDS011;58242;51.250;-1.118;2024-01-30T01:30:52;5.47;;;5.22;;
70667;SDS011;58242;51.250;-1.118;2024-01-30T01:33:17;4.88;;;4.57;;
70667;SDS011;58242;51.250;-1.118;2024-01-30T01:35:43;5.00;;;4.68;;
70667;SDS011;58242;51.250;-1.118;2024-01-30T01:38:08;5.65;;;5.20;;
70667;SDS011;58242;51.250;-1.118;2024-01-30T01:40:33;4.95;;;4.65;;
70667;SDS011;58242;51.250;-1.118;2024-01-30T01:43:02;5.35;;;4.97;;
70667;SDS011;58242;51.250;-1.118;2024-01-30T01:45:28;5.97;;;5.57;;
70667;SDS011;58242;51.250;-1.118;2024-01-30T01:47:53;5.93;;;5.53;;
70667;SDS011;58242;51.250;-1.118;2024-01-30T01:50:20;5.40;;;5.00;;
70667;SDS011;58242;51.250;-1.118;2024-01-30T01:52:49;5.85;;;5.45;;
70667;SDS011;58242;51.250;-1.118;2024-01-30T01:55:16;5.60;;;5.10;;
70667;SDS011;58242;51.250;-1.118;2024-01-30T01:57:47;5.43;;;5.13;;
70667;SDS011;58242;51.250;-1.118;2024-01-30T02:00:12;5.53;;;5.22;;
70667;SDS011;58242;51.250;-1.118;2024-01-30T02:02:39;5.47;;;5.18;;
70667;SDS011;58242;51.250;-1.118;2024-01-30T02:05:04;5.07;;;4.85;;
70667;SDS011;58242;51.250;-1.118;2024-01-30T02:07:30;4.80;;;4.60;;
70667;SDS011;58242;51.250;-1.118;2024-01-30T02:09:56;6.70;;;4.68;;
70667;SDS011;58242;51.250;-1.118;2024-01-30T02:12:21;5.75;;;5.45;;
70667;SDS011;58242;51.250;-1.118;2024-01-30T02:14:47;5.35;;;5.03;;
70667;SDS011;58242;51.250;-1.118;2024-01-30T02:17:14;5.15;;;4.95;;
70667;SDS011;58242;51.250;-1.118;2024-01-30T02:19:40;5.18;;;4.97;;
70667;SDS011;58242;51.250;-1.118;2024-01-30T02:22:06;5.07;;;4.85;;
70667;SDS011;58242;51.250;-1.118;2024-01-30T02:24:32;5.28;;;5.05;;
70667;SDS011;58242;51.250;-1.118;2024-01-30T02:26:57;4.93;;;4.72;;
70667;SDS011;58242;51.250;-1.118;2024-01-30T02:29:23;4.75;;;4.50;;
70667;SDS011;58242;51.250;-1.118;2024-01-30T02:31:48;4.95;;;4.75;;
70667;SDS011;58242;51.250;-1.118;2024-01-30T02:34:14;5.47;;;5.10;;
70667;SDS011;58242;51.250;-1.118;2024-01-30T02:36:42;4.47;;;4.28;;
70667;SDS011;58242;51.250;-1.118;2024-01-30T02:39:08;4.78;;;4.57;;
70667;SDS011;58242;51.250;-1.118;2024-01-30T02:41:34;4.93;;;4.65;;
70667;SDS011;58242;51.250;-1.118;2024-01-30T02:44:00;4.82;;;4.70;;
70667;SDS011;58242;51.250;-1.118;2024-01-30T02:46:25;4.63;;;4.40;;
70667;SDS011;58242;51.250;-1.118;2024-01-30T02:48:50;4.90;;;4.68;;
70667;SDS011;58242;51.250;-1.118;2024-01-30T02:51:16;4.72;;;4.53;;
70667;SDS011;58242;51.250;-1.118;2024-01-30T02:53:42;5.10;;;4.90;;
70667;SDS011;58242;51.250;-1.118;2024-01-30T02:56:07;4.95;;;4.65;;
70667;SDS011;58242;51.250;-1.118;2024-01-30T02:58:35;5.20;;;4.90;;
70667;SDS011;58242;51.250;-1.118;2024-01-30T03:01:01;4.90;;;4.70;;
70667;SDS011;58242;51.250;-1.118;2024-01-30T03:03:27;4.57;;;4.38;;
70667;SDS011;58242;51.250;-1.118;2024-01-30T03:05:52;4.82;;;4.72;;
70667;SDS011;58242;51.250;-1.118;2024-01-30T03:08:17;5.18;;;4.90;;
70667;SDS011;58242;51.250;-1.118;2024-01-30T03:10:42;5.10;;;4.80;;
70667;SDS011;58242;51.250;-1.118;2024-01-30T03:13:08;5.07;;;4.88;;
70667;SDS011;58242;51.250;-1.118;2024-01-30T03:15:33;5.25;;;4.95;;
70667;SDS011;58242;51.250;-1.118;2024-01-30T03:17:58;5.05;;;4.85;;
70667;SDS011;58242;51.250;-1.118;2024-01-30T03:20:24;5.13;;;4.93;;
70667;SDS011;58242;51.250;-1.118;2024-01-30T03:22:49;5.22;;;5.03;;
70667;SDS011;58242;51.250;-1.118;2024-01-30T03:25:15;5.13;;;4.93;;
70667;SDS011;58242;51.250;-1.118;2024-01-30T03:27:40;5.35;;;5.15;;
70667;SDS011;58242;51.250;-1.118;2024-01-30T03:30:06;5.47;;;5.00;;
70667;SDS011;58242;51.250;-1.118;2024-01-30T03:32:31;5.35;;;5.00;;
70667;SDS011;58242;51.250;-1.118;2024-01-30T03:34:57;5.50;;;5.30;;
70667;SDS011;58242;51.250;-1.118;2024-01-30T03:37:23;4.90;;;4.70;;
70667;SDS011;58242;51.250;-1.118;2024-01-30T03:39:49;4.43;;;4.18;;
70667;SDS011;58242;51.250;-1.118;2024-01-30T03:42:14;4.30;;;4.10;;
70667;SDS011;58242;51.250;-1.118;2024-01-30T03:44:39;3.90;;;3.80;;
70667;SDS011;58242;51.250;-1.118;2024-01-30T03:47:05;4.22;;;3.95;;
70667;SDS011;58242;51.250;-1.118;2024-01-30T03:49:30;4.45;;;4.25;;
70667;SDS011;58242;51.250;-1.118;2024-01-30T03:51:56;4.05;;;3.85;;
70667;SDS011;58242;51.250;-1.118;2024-01-30T03:54:21;3.95;;;3.75;;
70667;SDS011;58242;51.250;-1.118;2024-01-30T03:56:46;4.13;;;3.92;;
70667;SDS011;58242;51.250;-1.118;2024-01-30T03:59:12;4.30;;;4.15;;
70667;SDS011;58242;51.250;-1.118;2024-01-30T04:01:37;3.70;;;3.60;;
70667;SDS011;58242;51.250;-1.118;2024-01-30T04:04:02;4.30;;;4.00;;
70667;SDS011;58242;51.250;-1.118;2024-01-30T04:06:28;4.57;;;4.38;;
70667;SDS011;58242;51.250;-1.118;2024-01-30T04:08:53;4.20;;;4.00;;
70667;SDS011;58242;51.250;-1.118;2024-01-30T04:11:19;4.68;;;4.38;;
70667;SDS011;58242;51.250;-1.118;2024-01-30T04:13:47;4.55;;;4.35;;
70667;SDS011;58242;51.250;-1.118;2024-01-30T04:16:19;4.57;;;4.38;;
70667;SDS011;58242;51.250;-1.118;2024-01-30T04:18:46;4.65;;;4.45;;
70667;SDS011;58242;51.250;-1.118;2024-01-30T04:21:11;5.40;;;5.07;;
70667;SDS011;58242;51.250;-1.118;2024-01-30T04:23:36;4.35;;;4.20;;
70667;SDS011;58242;51.250;-1.118;2024-01-30T04:26:02;4.93;;;4.70;;
70667;SDS011;58242;51.250;-1.118;2024-01-30T04:28:28;5.15;;;4.95;;
70667;SDS011;58242;51.250;-1.118;2024-01-30T04:30:53;5.15;;;4.78;;
70667;SDS011;58242;51.250;-1.118;2024-01-30T04:33:19;5.00;;;4.70;;
70667;SDS011;58242;51.250;-1.118;2024-01-30T04:35:44;4.53;;;4.32;;
70667;SDS011;58242;51.250;-1.118;2024-01-30T04:38:09;4.55;;;4.30;;
70667;SDS011;58242;51.250;-1.118;2024-01-30T04:40:35;4.93;;;4.63;;
70667;SDS011;58242;51.250;-1.118;2024-01-30T04:43:00;4.63;;;4.32;;
70667;SDS011;58242;51.250;-1.118;2024-01-30T04:45:25;4.70;;;4.50;;
70667;SDS011;58242;51.250;-1.118;2024-01-30T04:47:51;4.90;;;4.60;;
70667;SDS011;58242;51.250;-1.118;2024-01-30T04:50:16;5.50;;;5.20;;
70667;SDS011;58242;51.250;-1.118;2024-01-30T04:52:41;5.95;;;5.30;;
70667;SDS011;58242;51.250;-1.118;2024-01-30T04:55:07;5.35;;;5.15;;
70667;SDS011;58242;51.250;-1.118;2024-01-30T04:57:32;5.20;;;4.90;;
70667;SDS011;58242;51.250;-1.118;2024-01-30T04:59:58;5.25;;;4.90;;
70667;SDS011;58242;51.250;-1.118;2024-01-30T05:02:24;5.53;;;5.03;;
70667;SDS011;58242;51.250;-1.118;2024-01-30T05:04:49;4.97;;;4.57;;
70667;SDS011;58242;51.250;-1.118;2024-01-30T05:07:15;5.80;;;5.40;;
70667;SDS011;58242;51.250;-1.118;2024-01-30T05:09:40;5.70;;;5.30;;
70667;SDS011;58242;51.250;-1.118;2024-01-30T05:12:06;6.05;;;5.65;;
70667;SDS011;58242;51.250;-1.118;2024-01-30T05:14:32;5.80;;;5.50;;
70667;SDS011;58242;51.250;-1.118;2024-01-30T05:16:57;6.43;;;6.03;;
70667;SDS011;58242;51.250;-1.118;2024-01-30T05:19:22;6.53;;;5.93;;
70667;SDS011;58242;51.250;-1.118;2024-01-30T05:21:48;5.40;;;5.05;;
70667;SDS011;58242;51.250;-1.118;2024-01-30T05:24:14;6.28;;;5.75;;
70667;SDS011;58242;51.250;-1.118;2024-01-30T05:26:39;6.43;;;5.93;;
70667;SDS011;58242;51.250;-1.118;2024-01-30T05:29:05;6.65;;;6.20;;
70667;SDS011;58242;51.250;-1.118;2024-01-30T05:31:31;6.88;;;6.32;;
70667;SDS011;58242;51.250;-1.118;2024-01-30T05:33:57;6.90;;;6.40;;
70667;SDS011;58242;51.250;-1.118;2024-01-30T05:36:22;7.00;;;6.50;;
70667;SDS011;58242;51.250;-1.118;2024-01-30T05:38:47;8.18;;;7.40;;
70667;SDS011;58242;51.250;-1.118;2024-01-30T05:41:13;7.50;;;6.90;;
70667;SDS011;58242;51.250;-1.118;2024-01-30T05:43:38;7.38;;;6.75;;
70667;SDS011;58242;51.250;-1.118;2024-01-30T05:46:03;6.80;;;6.40;;
70667;SDS011;58242;51.250;-1.118;2024-01-30T05:48:29;8.75;;;7.95;;
70667;SDS011;58242;51.250;-1.118;2024-01-30T05:50:54;7.35;;;6.75;;
70667;SDS011;58242;51.250;-1.118;2024-01-30T05:53:19;7.70;;;7.07;;
70667;SDS011;58242;51.250;-1.118;2024-01-30T05:55:45;7.00;;;6.40;;
70667;SDS011;58242;51.250;-1.118;2024-01-30T05:58:11;7.07;;;6.60;;
70667;SDS011;58242;51.250;-1.118;2024-01-30T06:00:36;6.93;;;6.53;;
70667;SDS011;58242;51.250;-1.118;2024-01-30T06:03:01;6.20;;;5.90;;
70667;SDS011;58242;51.250;-1.118;2024-01-30T06:05:27;6.05;;;5.65;;
70667;SDS011;58242;51.250;-1.118;2024-01-30T06:07:52;5.97;;;5.68;;
70667;SDS011;58242;51.250;-1.118;2024-01-30T06:10:18;6.13;;;5.72;;
70667;SDS011;58242;51.250;-1.118;2024-01-30T06:12:44;6.05;;;5.75;;
70667;SDS011;58242;51.250;-1.118;2024-01-30T06:15:09;5.53;;;5.22;;
70667;SDS011;58242;51.250;-1.118;2024-01-30T06:17:35;5.65;;;5.35;;
70667;SDS011;58242;51.250;-1.118;2024-01-30T06:20:00;6.13;;;5.80;;
70667;SDS011;58242;51.250;-1.118;2024-01-30T06:22:25;5.00;;;4.80;;
70667;SDS011;58242;51.250;-1.118;2024-01-30T06:24:51;5.32;;;5.00;;
70667;SDS011;58242;51.250;-1.118;2024-01-30T06:27:16;5.15;;;4.85;;
70667;SDS011;58242;51.250;-1.118;2024-01-30T06:29:42;4.95;;;4.72;;
70667;SDS011;58242;51.250;-1.118;2024-01-30T06:32:08;4.80;;;4.60;;
70667;SDS011;58242;51.250;-1.118;2024-01-30T06:34:34;4.68;;;4.47;;
70667;SDS011;58242;51.250;-1.118;2024-01-30T06:36:59;4.70;;;4.50;;
70667;SDS011;58242;51.250;-1.118;2024-01-30T06:39:25;4.55;;;4.35;;
70667;SDS011;58242;51.250;-1.118;2024-01-30T06:41:51;4.10;;;3.90;;
70667;SDS011;58242;51.250;-1.118;2024-01-30T06:44:16;4.60;;;4.40;;
70667;SDS011;58242;51.250;-1.118;2024-01-30T06:46:42;4.53;;;4.32;;
70667;SDS011;58242;51.250;-1.118;2024-01-30T06:49:07;4.30;;;4.10;;
70667;SDS011;58242;51.250;-1.118;2024-01-30T06:51:33;3.80;;;3.70;;
70667;SDS011;58242;51.250;-1.118;2024-01-30T06:53:58;3.95;;;3.75;;
70667;SDS011;58242;51.250;-1.118;2024-01-30T06:56:23;4.18;;;4.00;;
70667;SDS011;58242;51.250;-1.118;2024-01-30T06:58:52;3.90;;;3.80;;
70667;SDS011;58242;51.250;-1.118;2024-01-30T07:01:17;4.13;;;3.88;;
70667;SDS011;58242;51.250;-1.118;2024-01-30T07:03:43;4.18;;;4.00;;
70667;SDS011;58242;51.250;-1.118;2024-01-30T07:06:08;3.95;;;3.85;;
70667;SDS011;58242;51.250;-1.118;2024-01-30T07:08:35;4.18;;;3.85;;
70667;SDS011;58242;51.250;-1.118;2024-01-30T07:11:02;4.18;;;3.85;;
70667;SDS011;58242;51.250;-1.118;2024-01-30T07:13:28;3.95;;;3.85;;
70667;SDS011;58242;51.250;-1.118;2024-01-30T07:15:53;4.07;;;3.92;;
70667;SDS011;58242;51.250;-1.118;2024-01-30T07:18:19;3.75;;;3.65;;
70667;SDS011;58242;51.250;-1.118;2024-01-30T07:20:44;3.65;;;3.55;;
70667;SDS011;58242;51.250;-1.118;2024-01-30T07:23:13;3.93;;;3.73;;
70667;SDS011;58242;51.250;-1.118;2024-01-30T07:25:41;3.67;;;3.58;;
70667;SDS011;58242;51.250;-1.118;2024-01-30T07:28:06;3.88;;;3.78;;
70667;SDS011;58242;51.250;-1.118;2024-01-30T07:30:34;3.95;;;3.85;;
70667;SDS011;58242;51.250;-1.118;2024-01-30T07:32:59;4.25;;;4.05;;
70667;SDS011;58242;51.250;-1.118;2024-01-30T07:35:25;3.75;;;3.65;;
70667;SDS011;58242;51.250;-1.118;2024-01-30T07:37:50;3.88;;;3.67;;
70667;SDS011;58242;51.250;-1.118;2024-01-30T07:40:16;3.42;;;3.33;;
70667;SDS011;58242;51.250;-1.118;2024-01-30T07:42:42;3.60;;;3.40;;
70667;SDS011;58242;51.250;-1.118;2024-01-30T07:45:07;4.30;;;4.10;;
70667;SDS011;58242;51.250;-1.118;2024-01-30T07:47:33;4.45;;;4.25;;
70667;SDS011;58242;51.250;-1.118;2024-01-30T07:49:58;3.70;;;3.60;;
70667;SDS011;58242;51.250;-1.118;2024-01-30T07:52:24;4.18;;;3.97;;
70667;SDS011;58242;51.250;-1.118;2024-01-30T07:54:49;4.28;;;4.15;;
70667;SDS011;58242;51.250;-1.118;2024-01-30T07:57:15;3.67;;;3.58;;
70667;SDS011;58242;51.250;-1.118;2024-01-30T07:59:42;3.95;;;3.75;;
70667;SDS011;58242;51.250;-1.118;2024-01-30T08:02:09;3.17;;;3.08;;
70667;SDS011;58242;51.250;-1.118;2024-01-30T08:04:34;3.95;;;3.85;;
70667;SDS011;58242;51.250;-1.118;2024-01-30T08:06:59;3.50;;;3.40;;
70667;SDS011;58242;51.250;-1.118;2024-01-30T08:09:25;4.20;;;4.00;;
70667;SDS011;58242;51.250;-1.118;2024-01-30T08:11:50;3.95;;;3.70;;
70667;SDS011;58242;51.250;-1.118;2024-01-30T08:14:15;3.30;;;3.10;;
70667;SDS011;58242;51.250;-1.118;2024-01-30T08:16:41;3.17;;;3.08;;
70667;SDS011;58242;51.250;-1.118;2024-01-30T08:19:06;3.25;;;3.15;;
70667;SDS011;58242;51.250;-1.118;2024-01-30T08:21:32;3.25;;;3.15;;
70667;SDS011;58242;51.250;-1.118;2024-01-30T08:26:27;3.67;;;3.45;;
70667;SDS011;58242;51.250;-1.118;2024-01-30T08:28:52;3.13;;;2.97;;
70667;SDS011;58242;51.250;-1.118;2024-01-30T08:31:18;3.33;;;3.22;;
70667;SDS011;58242;51.250;-1.118;2024-01-30T08:33:43;3.40;;;3.30;;
70667;SDS011;58242;51.250;-1.118;2024-01-30T08:36:09;3.38;;;3.20;;
70667;SDS011;58242;51.250;-1.118;2024-01-30T08:38:34;3.72;;;3.53;;
70667;SDS011;58242;51.250;-1.118;2024-01-30T08:40:59;3.40;;;3.28;;
70667;SDS011;58242;51.250;-1.118;2024-01-30T08:43:25;3.50;;;3.30;;
70667;SDS011;58242;51.250;-1.118;2024-01-30T08:45:50;3.40;;;3.20;;
70667;SDS011;58242;51.250;-1.118;2024-01-30T08:48:15;3.50;;;3.30;;
70667;SDS011;58242;51.250;-1.118;2024-01-30T08:50:42;3.00;;;2.90;;
70667;SDS011;58242;51.250;-1.118;2024-01-30T08:53:08;3.72;;;3.30;;
70667;SDS011;58242;51.250;-1.118;2024-01-30T08:55:33;3.63;;;3.42;;
70667;SDS011;58242;51.250;-1.118;2024-01-30T08:57:58;3.65;;;3.45;;
70667;SDS011;58242;51.250;-1.118;2024-01-30T09:00:24;3.95;;;3.60;;
70667;SDS011;58242;51.250;-1.118;2024-01-30T09:02:49;3.70;;;3.50;;
70667;SDS011;58242;51.250;-1.118;2024-01-30T09:05:15;3.97;;;3.60;;
70667;SDS011;58242;51.250;-1.118;2024-01-30T09:07:40;3.88;;;3.58;;
70667;SDS011;58242;51.250;-1.118;2024-01-30T09:10:06;4.00;;;3.58;;
70667;SDS011;58242;51.250;-1.118;2024-01-30T09:12:31;3.88;;;3.67;;
70667;SDS011;58242;51.250;-1.118;2024-01-30T09:14:57;4.05;;;3.75;;
70667;SDS011;58242;51.250;-1.118;2024-01-30T09:17:22;5.25;;;3.33;;
70667;SDS011;58242;51.250;-1.118;2024-01-30T09:19:47;4.38;;;3.97;;
70667;SDS011;58242;51.250;-1.118;2024-01-30T09:22:13;3.67;;;3.38;;
70667;SDS011;58242;51.250;-1.118;2024-01-30T09:24:38;6.95;;;4.35;;
70667;SDS011;58242;51.250;-1.118;2024-01-30T09:27:05;4.60;;;4.20;;
70667;SDS011;58242;51.250;-1.118;2024-01-30T09:29:30;4.43;;;4.00;;
70667;SDS011;58242;51.250;-1.118;2024-01-30T09:31:55;4.13;;;3.70;;
70667;SDS011;58242;51.250;-1.118;2024-01-30T09:34:21;4.68;;;4.28;;
70667;SDS011;58242;51.250;-1.118;2024-01-30T09:36:46;3.95;;;3.55;;
70667;SDS011;58242;51.250;-1.118;2024-01-30T09:39:11;5.68;;;4.22;;
70667;SDS011;58242;51.250;-1.118;2024-01-30T09:41:40;5.28;;;4.15;;
70667;SDS011;58242;51.250;-1.118;2024-01-30T09:44:29;4.50;;;4.10;;
70667;SDS011;58242;51.250;-1.118;2024-01-30T09:46:55;4.13;;;3.83;;
70667;SDS011;58242;51.250;-1.118;2024-01-30T09:49:23;4.75;;;4.07;;
70667;SDS011;58242;51.250;-1.118;2024-01-30T09:51:50;4.28;;;3.95;;
70667;SDS011;58242;51.250;-1.118;2024-01-30T09:54:15;3.50;;;3.20;;
70667;SDS011;58242;51.250;-1.118;2024-01-30T09:56:42;5.03;;;3.95;;
70667;SDS011;58242;51.250;-1.118;2024-01-30T09:59:08;5.47;;;4.07;;
70667;SDS011;58242;51.250;-1.118;2024-01-30T10:01:34;5.60;;;3.97;;
70667;SDS011;58242;51.250;-1.118;2024-01-30T10:04:01;5.47;;;4.28;;
70667;SDS011;58242;51.250;-1.118;2024-01-30T10:06:26;4.43;;;3.70;;
70667;SDS011;58242;51.250;-1.118;2024-01-30T10:08:51;4.28;;;3.88;;
70667;SDS011;58242;51.250;-1.118;2024-01-30T10:11:17;3.88;;;3.55;;
70667;SDS011;58242;51.250;-1.118;2024-01-30T10:13:42;4.50;;;3.95;;
70667;SDS011;58242;51.250;-1.118;2024-01-30T10:16:07;4.60;;;3.40;;
70667;SDS011;58242;51.250;-1.118;2024-01-30T10:18:33;4.13;;;3.75;;
70667;SDS011;58242;51.250;-1.118;2024-01-30T10:20:58;4.57;;;4.18;;
70667;SDS011;58242;51.250;-1.118;2024-01-30T10:23:24;10.68;;;4.32;;
70667;SDS011;58242;51.250;-1.118;2024-01-30T10:25:51;4.63;;;4.18;;
70667;SDS011;58242;51.250;-1.118;2024-01-30T10:28:17;4.35;;;4.05;;
70667;SDS011;58242;51.250;-1.118;2024-01-30T10:30:42;4.53;;;4.15;;
70667;SDS011;58242;51.250;-1.118;2024-01-30T10:33:07;6.82;;;4.07;;
70667;SDS011;58242;51.250;-1.118;2024-01-30T10:35:33;5.43;;;3.40;;
70667;SDS011;58242;51.250;-1.118;2024-01-30T10:37:58;5.47;;;3.72;;
70667;SDS011;58242;51.250;-1.118;2024-01-30T10:40:26;10.13;;;3.92;;
70667;SDS011;58242;51.250;-1.118;2024-01-30T10:42:53;4.13;;;3.90;;
70667;SDS011;58242;51.250;-1.118;2024-01-30T10:45:20;4.60;;;4.15;;
70667;SDS011;58242;51.250;-1.118;2024-01-30T10:47:50;4.35;;;3.95;;
70667;SDS011;58242;51.250;-1.118;2024-01-30T10:50:19;4.05;;;3.67;;
70667;SDS011;58242;51.250;-1.118;2024-01-30T10:52:45;3.75;;;3.20;;
70667;SDS011;58242;51.250;-1.118;2024-01-30T10:55:12;4.10;;;3.80;;
70667;SDS011;58242;51.250;-1.118;2024-01-30T10:57:40;4.30;;;3.90;;
70667;SDS011;58242;51.250;-1.118;2024-01-30T11:00:09;4.10;;;3.80;;
70667;SDS011;58242;51.250;-1.118;2024-01-30T11:02:39;3.78;;;3.47;;
70667;SDS011;58242;51.250;-1.118;2024-01-30T11:05:06;3.88;;;3.58;;
70667;SDS011;58242;51.250;-1.118;2024-01-30T11:07:33;4.30;;;3.90;;
70667;SDS011;58242;51.250;-1.118;2024-01-30T11:09:59;3.60;;;3.40;;
70667;SDS011;58242;51.250;-1.118;2024-01-30T11:12:27;3.30;;;3.10;;
70667;SDS011;58242;51.250;-1.118;2024-01-30T11:20:16;3.50;;;3.20;;
70667;SDS011;58242;51.250;-1.118;2024-01-30T11:25:11;3.20;;;3.00;;
70667;SDS011;58242;51.250;-1.118;2024-01-30T11:27:37;3.28;;;3.05;;
70667;SDS011;58242;51.250;-1.118;2024-01-30T11:30:03;3.90;;;3.10;;
70667;SDS011;58242;51.250;-1.118;2024-01-30T11:32:29;3.55;;;3.35;;
70667;SDS011;58242;51.250;-1.118;2024-01-30T11:34:55;3.00;;;2.80;;
70667;SDS011;58242;51.250;-1.118;2024-01-30T11:37:20;3.15;;;2.90;;
70667;SDS011;58242;51.250;-1.118;2024-01-30T11:39:49;3.33;;;3.05;;
70667;SDS011;58242;51.250;-1.118;2024-01-30T11:42:15;3.08;;;2.70;;
70667;SDS011;58242;51.250;-1.118;2024-01-30T11:44:45;3.17;;;2.90;;
70667;SDS011;58242;51.250;-1.118;2024-01-30T11:47:12;3.15;;;2.95;;
70667;SDS011;58242;51.250;-1.118;2024-01-30T11:49:37;2.90;;;2.60;;
70667;SDS011;58242;51.250;-1.118;2024-01-30T11:52:03;3.03;;;2.83;;
70667;SDS011;58242;51.250;-1.118;2024-01-30T11:54:29;2.70;;;2.50;;
70667;SDS011;58242;51.250;-1.118;2024-01-30T11:56:54;2.72;;;2.63;;
70667;SDS011;58242;51.250;-1.118;2024-01-30T11:59:19;2.88;;;2.67;;
70667;SDS011;58242;51.250;-1.118;2024-01-30T12:01:45;2.38;;;2.28;;
70667;SDS011;58242;51.250;-1.118;2024-01-30T12:04:11;2.60;;;2.50;;
70667;SDS011;58242;51.250;-1.118;2024-01-30T12:06:36;2.95;;;2.75;;
70667;SDS011;58242;51.250;-1.118;2024-01-30T12:09:02;2.30;;;2.20;;
70667;SDS011;58242;51.250;-1.118;2024-01-30T12:11:42;2.42;;;2.33;;
70667;SDS011;58242;51.250;-1.118;2024-01-30T12:14:09;2.60;;;2.50;;
70667;SDS011;58242;51.250;-1.118;2024-01-30T12:16:35;2.83;;;2.63;;
70667;SDS011;58242;51.250;-1.118;2024-01-30T12:19:00;2.83;;;2.72;;
70667;SDS011;58242;51.250;-1.118;2024-01-30T12:21:27;2.65;;;2.55;;
70667;SDS011;58242;51.250;-1.118;2024-01-30T12:23:53;2.45;;;2.35;;
70667;SDS011;58242;51.250;-1.118;2024-01-30T12:26:19;2.85;;;2.75;;
70667;SDS011;58242;51.250;-1.118;2024-01-30T12:28:51;2.83;;;2.72;;
70667;SDS011;58242;51.250;-1.118;2024-01-30T12:31:27;2.45;;;2.35;;
70667;SDS011;58242;51.250;-1.118;2024-01-30T12:33:53;2.58;;;2.47;;
70667;SDS011;58242;51.250;-1.118;2024-01-30T12:36:18;2.40;;;2.30;;
70667;SDS011;58242;51.250;-1.118;2024-01-30T12:38:44;2.42;;;2.33;;
70667;SDS011;58242;51.250;-1.118;2024-01-30T12:41:10;2.50;;;2.40;;
70667;SDS011;58242;51.250;-1.118;2024-01-30T12:43:35;2.50;;;2.40;;
70667;SDS011;58242;51.250;-1.118;2024-01-30T12:46:01;2.50;;;2.40;;
70667;SDS011;58242;51.250;-1.118;2024-01-30T12:48:28;2.60;;;2.50;;
70667;SDS011;58242;51.250;-1.118;2024-01-30T12:50:54;2.30;;;2.20;;
70667;SDS011;58242;51.250;-1.118;2024-01-30T12:53:21;2.55;;;2.45;;
70667;SDS011;58242;51.250;-1.118;2024-01-30T12:55:46;2.58;;;2.47;;
70667;SDS011;58242;51.250;-1.118;2024-01-30T12:58:12;2.70;;;2.60;;
70667;SDS011;58242;51.250;-1.118;2024-01-30T13:00:37;2.20;;;2.20;;
70667;SDS011;58242;51.250;-1.118;2024-01-30T13:03:02;2.50;;;2.40;;
70667;SDS011;58242;51.250;-1.118;2024-01-30T13:05:28;2.55;;;2.45;;
70667;SDS011;58242;51.250;-1.118;2024-01-30T13:07:53;3.13;;;2.92;;
70667;SDS011;58242;51.250;-1.118;2024-01-30T13:10:19;3.13;;;2.92;;
70667;SDS011;58242;51.250;-1.118;2024-01-30T13:12:44;3.25;;;2.70;;
70667;SDS011;58242;51.250;-1.118;2024-01-30T13:15:09;2.83;;;2.72;;
70667;SDS011;58242;51.250;-1.118;2024-01-30T13:17:36;3.00;;;2.90;;
70667;SDS011;58242;51.250;-1.118;2024-01-30T13:20:01;2.80;;;2.70;;
70667;SDS011;58242;51.250;-1.118;2024-01-30T13:22:29;2.78;;;2.67;;
70667;SDS011;58242;51.250;-1.118;2024-01-30T13:24:54;3.25;;;3.05;;
70667;SDS011;58242;51.250;-1.118;2024-01-30T13:27:20;3.63;;;3.33;;
70667;SDS011;58242;51.250;-1.118;2024-01-30T13:29:45;3.20;;;3.00;;
70667;SDS011;58242;51.250;-1.118;2024-01-30T13:32:11;3.53;;;3.33;;
70667;SDS011;58242;51.250;-1.118;2024-01-30T13:34:36;3.60;;;3.40;;
70667;SDS011;58242;51.250;-1.118;2024-01-30T13:37:01;3.25;;;3.05;;
70667;SDS011;58242;51.250;-1.118;2024-01-30T13:39:27;3.72;;;3.42;;
70667;SDS011;58242;51.250;-1.118;2024-01-30T13:41:54;5.28;;;4.88;;
70667;SDS011;58242;51.250;-1.118;2024-01-30T13:44:19;5.18;;;4.78;;
70667;SDS011;58242;51.250;-1.118;2024-01-30T13:46:45;4.72;;;4.32;;
70667;SDS011;58242;51.250;-1.118;2024-01-30T13:49:11;4.15;;;3.85;;
70667;SDS011;58242;51.250;-1.118;2024-01-30T13:51:36;3.70;;;3.50;;
70667;SDS011;58242;51.250;-1.118;2024-01-30T13:54:02;2.97;;;2.83;;
70667;SDS011;58242;51.250;-1.118;2024-01-30T13:56:27;2.92;;;2.83;;
70667;SDS011;58242;51.250;-1.118;2024-01-30T13:58:53;2.53;;;2.42;;
70667;SDS011;58242;51.250;-1.118;2024-01-30T14:01:20;2.50;;;2.40;;
70667;SDS011;58242;51.250;-1.118;2024-01-30T14:03:46;2.53;;;2.40;;
70667;SDS011;58242;51.250;-1.118;2024-01-30T14:06:11;2.15;;;2.15;;
70667;SDS011;58242;51.250;-1.118;2024-01-30T14:08:37;2.15;;;2.15;;
70667;SDS011;58242;51.250;-1.118;2024-01-30T14:11:02;2.28;;;2.17;;
70667;SDS011;58242;51.250;-1.118;2024-01-30T14:13:28;2.40;;;2.30;;
70667;SDS011;58242;51.250;-1.118;2024-01-30T14:15:53;2.33;;;2.22;;
70667;SDS011;58242;51.250;-1.118;2024-01-30T14:18:19;2.33;;;2.33;;
70667;SDS011;58242;51.250;-1.118;2024-01-30T14:20:45;2.30;;;2.30;;
70667;SDS011;58242;51.250;-1.118;2024-01-30T14:23:10;2.70;;;2.50;;
70667;SDS011;58242;51.250;-1.118;2024-01-30T14:25:36;2.50;;;2.40;;
70667;SDS011;58242;51.250;-1.118;2024-01-30T14:28:01;2.58;;;2.47;;
70667;SDS011;58242;51.250;-1.118;2024-01-30T14:30:26;2.70;;;2.60;;
70667;SDS011;58242;51.250;-1.118;2024-01-30T14:32:52;2.50;;;2.40;;
70667;SDS011;58242;51.250;-1.118;2024-01-30T14:35:17;2.80;;;2.70;;